Terminal Aerodrome Forecast
Issued by NWS

Home | Current Version | Previous Version | Graphics & Text | Print | Product List | Glossary Off
Versions: 1 2 3 4 5 6 7 8 9 10 11 12

000
FTUS43 KDDC 170532
TAFHYS
TAF
KHYS 170532Z 1706/1806 17007KT P6SM SKC
     FM171800 20012G18KT P6SM SKC
     FM180000 19007KT P6SM SKC=

USA.gov is the U.S. government's official web portal to all federal, state and local government web resources and services.